sensor_id;sensor_type;location;lat;lon;timestamp;temperature;humidity
75430;DHT22;64127;51.488;5.462;2024-01-30T00:01:07;10.50;99.90
75430;DHT22;64127;51.488;5.462;2024-01-30T00:03:39;10.50;99.90
75430;DHT22;64127;51.488;5.462;2024-01-30T00:06:11;10.50;99.90
75430;DHT22;64127;51.488;5.462;2024-01-30T00:08:43;10.50;99.90
75430;DHT22;64127;51.488;5.462;2024-01-30T00:11:18;10.50;99.90
75430;DHT22;64127;51.488;5.462;2024-01-30T00:13:50;10.50;99.90
75430;DHT22;64127;51.488;5.462;2024-01-30T00:16:23;10.40;99.90
75430;DHT22;64127;51.488;5.462;2024-01-30T00:18:56;10.40;99.90
75430;DHT22;64127;51.488;5.462;2024-01-30T00:21:28;10.40;99.90
75430;DHT22;64127;51.488;5.462;2024-01-30T00:24:00;10.40;99.90
75430;DHT22;64127;51.488;5.462;2024-01-30T00:26:32;10.40;99.90
75430;DHT22;64127;51.488;5.462;2024-01-30T00:29:05;10.40;99.90
75430;DHT22;64127;51.488;5.462;2024-01-30T00:31:37;10.40;99.90
75430;DHT22;64127;51.488;5.462;2024-01-30T00:34:12;10.30;99.90
75430;DHT22;64127;51.488;5.462;2024-01-30T00:36:44;10.30;99.90
75430;DHT22;64127;51.488;5.462;2024-01-30T00:39:16;10.30;99.90
75430;DHT22;64127;51.488;5.462;2024-01-30T00:41:51;10.30;99.90
75430;DHT22;64127;51.488;5.462;2024-01-30T00:44:23;10.30;99.90
75430;DHT22;64127;51.488;5.462;2024-01-30T00:46:55;10.30;99.90
75430;DHT22;64127;51.488;5.462;2024-01-30T00:49:27;10.30;99.90
75430;DHT22;64127;51.488;5.462;2024-01-30T00:51:59;10.20;99.90
75430;DHT22;64127;51.488;5.462;2024-01-30T00:54:31;10.20;99.90
75430;DHT22;64127;51.488;5.462;2024-01-30T00:57:03;10.20;99.90
75430;DHT22;64127;51.488;5.462;2024-01-30T00:59:35;10.20;99.90
75430;DHT22;64127;51.488;5.462;2024-01-30T01:02:07;10.20;99.90
75430;DHT22;64127;51.488;5.462;2024-01-30T01:04:39;10.20;99.90
75430;DHT22;64127;51.488;5.462;2024-01-30T01:07:12;10.20;99.90
75430;DHT22;64127;51.488;5.462;2024-01-30T01:09:44;10.20;99.90
75430;DHT22;64127;51.488;5.462;2024-01-30T01:12:16;10.20;99.90
75430;DHT22;64127;51.488;5.462;2024-01-30T01:14:48;10.20;99.90
75430;DHT22;64127;51.488;5.462;2024-01-30T01:17:20;10.10;99.90
75430;DHT22;64127;51.488;5.462;2024-01-30T01:19:52;10.20;99.90
75430;DHT22;64127;51.488;5.462;2024-01-30T01:22:24;10.10;99.90
75430;DHT22;64127;51.488;5.462;2024-01-30T01:24:56;10.10;99.90
75430;DHT22;64127;51.488;5.462;2024-01-30T01:27:28;10.10;99.90
75430;DHT22;64127;51.488;5.462;2024-01-30T01:30:00;10.20;99.90
75430;DHT22;64127;51.488;5.462;2024-01-30T01:32:32;10.10;99.90
75430;DHT22;64127;51.488;5.462;2024-01-30T01:35:05;10.20;99.90
75430;DHT22;64127;51.488;5.462;2024-01-30T01:37:37;10.20;99.90
75430;DHT22;64127;51.488;5.462;2024-01-30T01:40:09;10.20;99.90
75430;DHT22;64127;51.488;5.462;2024-01-30T01:42:41;10.20;99.90
75430;DHT22;64127;51.488;5.462;2024-01-30T01:45:13;10.20;99.90
75430;DHT22;64127;51.488;5.462;2024-01-30T01:47:47;10.20;99.90
75430;DHT22;64127;51.488;5.462;2024-01-30T01:50:23;10.20;99.90
75430;DHT22;64127;51.488;5.462;2024-01-30T01:52:55;10.20;99.90
75430;DHT22;64127;51.488;5.462;2024-01-30T01:55:29;10.20;99.90
75430;DHT22;64127;51.488;5.462;2024-01-30T01:58:04;10.20;99.90
75430;DHT22;64127;51.488;5.462;2024-01-30T02:00:37;10.10;99.90
75430;DHT22;64127;51.488;5.462;2024-01-30T02:03:11;10.10;99.90
75430;DHT22;64127;51.488;5.462;2024-01-30T02:05:45;10.20;99.90
75430;DHT22;64127;51.488;5.462;2024-01-30T02:08:18;10.20;99.90
75430;DHT22;64127;51.488;5.462;2024-01-30T02:10:50;10.20;99.90
75430;DHT22;64127;51.488;5.462;2024-01-30T02:13:22;10.20;99.90
75430;DHT22;64127;51.488;5.462;2024-01-30T02:15:54;10.20;99.90
75430;DHT22;64127;51.488;5.462;2024-01-30T02:18:27;10.20;99.90
75430;DHT22;64127;51.488;5.462;2024-01-30T02:21:03;10.20;99.90
75430;DHT22;64127;51.488;5.462;2024-01-30T02:23:36;10.20;99.90
75430;DHT22;64127;51.488;5.462;2024-01-30T02:26:11;10.20;99.90
75430;DHT22;64127;51.488;5.462;2024-01-30T02:28:43;10.20;99.90
75430;DHT22;64127;51.488;5.462;2024-01-30T02:31:15;10.20;99.90
75430;DHT22;64127;51.488;5.462;2024-01-30T02:33:47;10.20;99.90
75430;DHT22;64127;51.488;5.462;2024-01-30T02:36:19;10.20;99.90
75430;DHT22;64127;51.488;5.462;2024-01-30T02:38:51;10.20;99.90
75430;DHT22;64127;51.488;5.462;2024-01-30T02:41:23;10.20;99.90
75430;DHT22;64127;51.488;5.462;2024-01-30T02:43:55;10.20;99.90
75430;DHT22;64127;51.488;5.462;2024-01-30T02:46:27;10.20;99.90
75430;DHT22;64127;51.488;5.462;2024-01-30T02:48:59;10.20;99.90
75430;DHT22;64127;51.488;5.462;2024-01-30T02:51:32;10.20;99.90
75430;DHT22;64127;51.488;5.462;2024-01-30T02:54:04;10.20;99.90
75430;DHT22;64127;51.488;5.462;2024-01-30T02:56:36;10.20;99.90
75430;DHT22;64127;51.488;5.462;2024-01-30T02:59:08;10.20;99.90
75430;DHT22;64127;51.488;5.462;2024-01-30T03:01:46;10.20;99.90
75430;DHT22;64127;51.488;5.462;2024-01-30T03:04:19;10.20;99.90
75430;DHT22;64127;51.488;5.462;2024-01-30T03:06:51;10.20;99.90
75430;DHT22;64127;51.488;5.462;2024-01-30T03:09:23;10.20;99.90
75430;DHT22;64127;51.488;5.462;2024-01-30T03:11:55;10.20;99.90
75430;DHT22;64127;51.488;5.462;2024-01-30T03:14:29;10.20;99.90
75430;DHT22;64127;51.488;5.462;2024-01-30T03:17:04;10.20;99.90
75430;DHT22;64127;51.488;5.462;2024-01-30T03:19:36;10.10;99.90
75430;DHT22;64127;51.488;5.462;2024-01-30T03:22:08;10.20;99.90
75430;DHT22;64127;51.488;5.462;2024-01-30T03:24:40;10.20;99.90
75430;DHT22;64127;51.488;5.462;2024-01-30T03:27:12;10.20;99.90
75430;DHT22;64127;51.488;5.462;2024-01-30T03:29:44;10.10;99.90
75430;DHT22;64127;51.488;5.462;2024-01-30T03:32:16;10.20;99.90
75430;DHT22;64127;51.488;5.462;2024-01-30T03:34:48;10.20;99.90
75430;DHT22;64127;51.488;5.462;2024-01-30T03:37:20;10.20;99.90
75430;DHT22;64127;51.488;5.462;2024-01-30T03:39:52;10.20;99.90
75430;DHT22;64127;51.488;5.462;2024-01-30T03:42:24;10.10;99.90
75430;DHT22;64127;51.488;5.462;2024-01-30T03:44:56;10.10;99.90
75430;DHT22;64127;51.488;5.462;2024-01-30T03:47:28;10.10;99.90
75430;DHT22;64127;51.488;5.462;2024-01-30T03:50:00;10.10;99.90
75430;DHT22;64127;51.488;5.462;2024-01-30T03:52:32;10.10;99.90
75430;DHT22;64127;51.488;5.462;2024-01-30T03:55:05;10.10;99.90
75430;DHT22;64127;51.488;5.462;2024-01-30T03:57:37;10.10;99.90
75430;DHT22;64127;51.488;5.462;2024-01-30T04:00:09;10.10;99.90
75430;DHT22;64127;51.488;5.462;2024-01-30T04:02:42;10.10;99.90
75430;DHT22;64127;51.488;5.462;2024-01-30T04:05:14;10.10;99.90
75430;DHT22;64127;51.488;5.462;2024-01-30T04:07:46;10.10;99.90
75430;DHT22;64127;51.488;5.462;2024-01-30T04:10:18;10.20;99.90
75430;DHT22;64127;51.488;5.462;2024-01-30T04:12:51;10.10;99.90
75430;DHT22;64127;51.488;5.462;2024-01-30T04:15:23;10.10;99.90
75430;DHT22;64127;51.488;5.462;2024-01-30T04:17:57;10.20;99.90
75430;DHT22;64127;51.488;5.462;2024-01-30T04:20:31;10.20;99.90
75430;DHT22;64127;51.488;5.462;2024-01-30T04:23:03;10.10;99.90
75430;DHT22;64127;51.488;5.462;2024-01-30T04:25:35;10.20;99.90
75430;DHT22;64127;51.488;5.462;2024-01-30T04:28:07;10.20;99.90
75430;DHT22;64127;51.488;5.462;2024-01-30T04:30:39;10.10;99.90
75430;DHT22;64127;51.488;5.462;2024-01-30T04:33:11;10.20;99.90
75430;DHT22;64127;51.488;5.462;2024-01-30T04:35:43;10.20;99.90
75430;DHT22;64127;51.488;5.462;2024-01-30T04:38:15;10.20;99.90
75430;DHT22;64127;51.488;5.462;2024-01-30T04:40:47;10.20;99.90
75430;DHT22;64127;51.488;5.462;2024-01-30T04:43:19;10.20;99.90
75430;DHT22;64127;51.488;5.462;2024-01-30T04:45:51;10.30;99.90
75430;DHT22;64127;51.488;5.462;2024-01-30T04:48:23;10.30;99.90
75430;DHT22;64127;51.488;5.462;2024-01-30T04:50:55;10.30;99.90
75430;DHT22;64127;51.488;5.462;2024-01-30T04:53:29;10.30;99.90
75430;DHT22;64127;51.488;5.462;2024-01-30T04:56:02;10.30;99.90
75430;DHT22;64127;51.488;5.462;2024-01-30T04:58:34;10.30;99.90
75430;DHT22;64127;51.488;5.462;2024-01-30T05:01:06;10.40;99.90
75430;DHT22;64127;51.488;5.462;2024-01-30T05:03:38;10.40;99.90
75430;DHT22;64127;51.488;5.462;2024-01-30T05:06:10;10.40;99.90
75430;DHT22;64127;51.488;5.462;2024-01-30T05:08:42;10.40;99.90
75430;DHT22;64127;51.488;5.462;2024-01-30T05:11:14;10.40;99.90
75430;DHT22;64127;51.488;5.462;2024-01-30T05:13:46;10.40;99.90
75430;DHT22;64127;51.488;5.462;2024-01-30T05:16:18;10.40;99.90
75430;DHT22;64127;51.488;5.462;2024-01-30T05:18:51;10.40;99.90
75430;DHT22;64127;51.488;5.462;2024-01-30T05:21:23;10.50;99.90
75430;DHT22;64127;51.488;5.462;2024-01-30T05:23:55;10.40;99.90
75430;DHT22;64127;51.488;5.462;2024-01-30T05:26:27;10.40;99.90
75430;DHT22;64127;51.488;5.462;2024-01-30T05:28:59;10.50;99.90
75430;DHT22;64127;51.488;5.462;2024-01-30T05:31:31;10.40;99.90
75430;DHT22;64127;51.488;5.462;2024-01-30T05:34:03;10.40;99.90
75430;DHT22;64127;51.488;5.462;2024-01-30T05:36:36;10.50;99.90
75430;DHT22;64127;51.488;5.462;2024-01-30T05:39:08;10.50;99.90
75430;DHT22;64127;51.488;5.462;2024-01-30T05:41:40;10.50;99.90
75430;DHT22;64127;51.488;5.462;2024-01-30T05:44:12;10.50;99.90
75430;DHT22;64127;51.488;5.462;2024-01-30T05:46:44;10.50;99.90
75430;DHT22;64127;51.488;5.462;2024-01-30T05:49:16;10.50;99.90
75430;DHT22;64127;51.488;5.462;2024-01-30T05:51:48;10.50;99.90
75430;DHT22;64127;51.488;5.462;2024-01-30T05:54:20;10.50;99.90
75430;DHT22;64127;51.488;5.462;2024-01-30T05:56:52;10.50;99.90
75430;DHT22;64127;51.488;5.462;2024-01-30T05:59:24;10.50;99.90
75430;DHT22;64127;51.488;5.462;2024-01-30T06:01:56;10.50;99.90
75430;DHT22;64127;51.488;5.462;2024-01-30T06:04:28;10.60;99.90
75430;DHT22;64127;51.488;5.462;2024-01-30T06:07:00;10.50;99.90
75430;DHT22;64127;51.488;5.462;2024-01-30T06:09:33;10.60;99.90
75430;DHT22;64127;51.488;5.462;2024-01-30T06:12:05;10.50;99.90
75430;DHT22;64127;51.488;5.462;2024-01-30T06:14:38;10.60;99.90
75430;DHT22;64127;51.488;5.462;2024-01-30T06:17:10;10.60;99.90
75430;DHT22;64127;51.488;5.462;2024-01-30T06:19:43;10.60;99.90
75430;DHT22;64127;51.488;5.462;2024-01-30T06:22:16;10.60;99.90
75430;DHT22;64127;51.488;5.462;2024-01-30T06:24:48;10.70;99.90
75430;DHT22;64127;51.488;5.462;2024-01-30T06:27:20;10.70;99.90
75430;DHT22;64127;51.488;5.462;2024-01-30T06:29:52;10.70;99.90
75430;DHT22;64127;51.488;5.462;2024-01-30T06:32:24;10.70;99.90
75430;DHT22;64127;51.488;5.462;2024-01-30T06:34:56;10.70;99.90
75430;DHT22;64127;51.488;5.462;2024-01-30T06:37:28;10.70;99.90
75430;DHT22;64127;51.488;5.462;2024-01-30T06:40:00;10.70;99.90
75430;DHT22;64127;51.488;5.462;2024-01-30T06:42:32;10.70;99.90
75430;DHT22;64127;51.488;5.462;2024-01-30T06:45:05;10.80;99.90
75430;DHT22;64127;51.488;5.462;2024-01-30T06:47:37;10.80;99.90
75430;DHT22;64127;51.488;5.462;2024-01-30T06:50:09;10.70;99.90
75430;DHT22;64127;51.488;5.462;2024-01-30T06:52:41;10.70;99.90
75430;DHT22;64127;51.488;5.462;2024-01-30T06:55:13;10.70;99.90
75430;DHT22;64127;51.488;5.462;2024-01-30T06:57:46;10.80;99.90
75430;DHT22;64127;51.488;5.462;2024-01-30T07:00:19;10.80;99.90
75430;DHT22;64127;51.488;5.462;2024-01-30T07:02:51;10.80;99.90
75430;DHT22;64127;51.488;5.462;2024-01-30T07:05:24;10.80;99.90
75430;DHT22;64127;51.488;5.462;2024-01-30T07:07:55;10.80;99.90
75430;DHT22;64127;51.488;5.462;2024-01-30T07:10:28;10.80;99.90
75430;DHT22;64127;51.488;5.462;2024-01-30T07:13:01;10.80;99.90
75430;DHT22;64127;51.488;5.462;2024-01-30T07:15:33;10.80;99.90
75430;DHT22;64127;51.488;5.462;2024-01-30T07:18:05;10.80;99.90
75430;DHT22;64127;51.488;5.462;2024-01-30T07:20:37;10.80;99.90
75430;DHT22;64127;51.488;5.462;2024-01-30T07:23:13;10.80;99.90
75430;DHT22;64127;51.488;5.462;2024-01-30T07:25:48;10.80;99.90
75430;DHT22;64127;51.488;5.462;2024-01-30T07:28:23;10.80;99.90
75430;DHT22;64127;51.488;5.462;2024-01-30T07:30:55;10.80;99.90
75430;DHT22;64127;51.488;5.462;2024-01-30T07:33:27;10.80;99.90
75430;DHT22;64127;51.488;5.462;2024-01-30T07:35:59;10.80;99.90
75430;DHT22;64127;51.488;5.462;2024-01-30T07:38:32;10.80;99.90
75430;DHT22;64127;51.488;5.462;2024-01-30T07:41:04;10.80;99.90
75430;DHT22;64127;51.488;5.462;2024-01-30T07:43:37;10.90;99.90
75430;DHT22;64127;51.488;5.462;2024-01-30T07:46:10;10.80;99.90
75430;DHT22;64127;51.488;5.462;2024-01-30T07:48:42;10.80;99.90
75430;DHT22;64127;51.488;5.462;2024-01-30T07:51:14;10.80;99.90
75430;DHT22;64127;51.488;5.462;2024-01-30T07:53:52;10.80;99.90
75430;DHT22;64127;51.488;5.462;2024-01-30T07:56:24;10.80;99.90
75430;DHT22;64127;51.488;5.462;2024-01-30T07:58:57;10.80;99.90
75430;DHT22;64127;51.488;5.462;2024-01-30T08:01:29;10.80;99.90
75430;DHT22;64127;51.488;5.462;2024-01-30T08:04:01;10.80;99.90
75430;DHT22;64127;51.488;5.462;2024-01-30T08:06:33;10.80;99.90
75430;DHT22;64127;51.488;5.462;2024-01-30T08:09:05;10.80;99.90
75430;DHT22;64127;51.488;5.462;2024-01-30T08:11:37;10.80;99.90
75430;DHT22;64127;51.488;5.462;2024-01-30T08:14:09;10.90;99.90
75430;DHT22;64127;51.488;5.462;2024-01-30T08:16:41;10.90;99.90
75430;DHT22;64127;51.488;5.462;2024-01-30T08:19:14;10.90;99.90
75430;DHT22;64127;51.488;5.462;2024-01-30T08:21:47;10.90;99.90
75430;DHT22;64127;51.488;5.462;2024-01-30T08:24:19;10.90;99.90
75430;DHT22;64127;51.488;5.462;2024-01-30T08:26:51;10.90;99.90
75430;DHT22;64127;51.488;5.462;2024-01-30T08:29:23;10.90;99.90
75430;DHT22;64127;51.488;5.462;2024-01-30T08:31:55;11.00;99.90
75430;DHT22;64127;51.488;5.462;2024-01-30T08:34:27;11.00;99.90
75430;DHT22;64127;51.488;5.462;2024-01-30T08:36:59;11.00;99.90
75430;DHT22;64127;51.488;5.462;2024-01-30T08:39:31;11.00;99.90
75430;DHT22;64127;51.488;5.462;2024-01-30T08:42:03;11.10;99.90
75430;DHT22;64127;51.488;5.462;2024-01-30T08:44:36;11.10;99.90
75430;DHT22;64127;51.488;5.462;2024-01-30T08:47:08;11.10;99.90
75430;DHT22;64127;51.488;5.462;2024-01-30T08:49:40;11.20;99.90
75430;DHT22;64127;51.488;5.462;2024-01-30T08:52:12;11.20;99.90
75430;DHT22;64127;51.488;5.462;2024-01-30T08:54:44;11.20;99.90
75430;DHT22;64127;51.488;5.462;2024-01-30T08:57:17;11.20;99.90
75430;DHT22;64127;51.488;5.462;2024-01-30T08:59:49;11.30;99.90
75430;DHT22;64127;51.488;5.462;2024-01-30T09:02:21;11.30;99.90
75430;DHT22;64127;51.488;5.462;2024-01-30T09:04:53;11.30;99.90
75430;DHT22;64127;51.488;5.462;2024-01-30T09:07:25;11.40;99.90
75430;DHT22;64127;51.488;5.462;2024-01-30T09:09:57;11.40;99.90
75430;DHT22;64127;51.488;5.462;2024-01-30T09:12:29;11.40;99.90
75430;DHT22;64127;51.488;5.462;2024-01-30T09:15:01;11.50;99.90
75430;DHT22;64127;51.488;5.462;2024-01-30T09:17:34;11.50;99.90
75430;DHT22;64127;51.488;5.462;2024-01-30T09:20:06;11.50;99.90
75430;DHT22;64127;51.488;5.462;2024-01-30T09:22:39;11.60;99.90
75430;DHT22;64127;51.488;5.462;2024-01-30T09:25:11;11.60;99.90
75430;DHT22;64127;51.488;5.462;2024-01-30T09:27:43;11.60;99.90
75430;DHT22;64127;51.488;5.462;2024-01-30T09:30:15;11.60;99.90
75430;DHT22;64127;51.488;5.462;2024-01-30T09:32:47;11.70;99.90
75430;DHT22;64127;51.488;5.462;2024-01-30T09:35:19;11.70;99.90
75430;DHT22;64127;51.488;5.462;2024-01-30T09:37:51;11.70;99.90
75430;DHT22;64127;51.488;5.462;2024-01-30T09:40:24;11.80;99.90
75430;DHT22;64127;51.488;5.462;2024-01-30T09:42:56;11.80;99.90
75430;DHT22;64127;51.488;5.462;2024-01-30T09:45:32;11.80;99.90
75430;DHT22;64127;51.488;5.462;2024-01-30T09:48:06;11.90;99.90
75430;DHT22;64127;51.488;5.462;2024-01-30T09:50:39;11.90;99.90
75430;DHT22;64127;51.488;5.462;2024-01-30T09:53:13;11.90;99.90
75430;DHT22;64127;51.488;5.462;2024-01-30T09:55:47;11.90;99.90
75430;DHT22;64127;51.488;5.462;2024-01-30T09:58:20;12.00;99.90
75430;DHT22;64127;51.488;5.462;2024-01-30T10:00:53;12.00;99.90
75430;DHT22;64127;51.488;5.462;2024-01-30T10:03:29;12.00;99.90
75430;DHT22;64127;51.488;5.462;2024-01-30T10:06:02;12.10;99.90
75430;DHT22;64127;51.488;5.462;2024-01-30T10:08:34;12.10;99.90
75430;DHT22;64127;51.488;5.462;2024-01-30T10:11:06;12.10;99.90
75430;DHT22;64127;51.488;5.462;2024-01-30T10:13:39;12.10;99.90
75430;DHT22;64127;51.488;5.462;2024-01-30T10:16:14;12.20;99.90
75430;DHT22;64127;51.488;5.462;2024-01-30T10:18:48;12.20;99.90
75430;DHT22;64127;51.488;5.462;2024-01-30T10:21:21;12.20;99.90
75430;DHT22;64127;51.488;5.462;2024-01-30T10:23:53;12.20;99.90
75430;DHT22;64127;51.488;5.462;2024-01-30T10:26:25;12.20;99.90
75430;DHT22;64127;51.488;5.462;2024-01-30T10:28:57;12.20;99.90
75430;DHT22;64127;51.488;5.462;2024-01-30T10:31:29;12.20;99.90
75430;DHT22;64127;51.488;5.462;2024-01-30T10:34:01;12.30;99.90
75430;DHT22;64127;51.488;5.462;2024-01-30T10:36:50;12.30;99.90
75430;DHT22;64127;51.488;5.462;2024-01-30T10:39:50;12.30;99.90
75430;DHT22;64127;51.488;5.462;2024-01-30T10:42:26;12.30;99.90
75430;DHT22;64127;51.488;5.462;2024-01-30T10:45:13;12.30;99.90
75430;DHT22;64127;51.488;5.462;2024-01-30T10:47:50;12.30;99.90
75430;DHT22;64127;51.488;5.462;2024-01-30T10:50:27;12.30;99.90
75430;DHT22;64127;51.488;5.462;2024-01-30T10:53:03;12.30;99.90
75430;DHT22;64127;51.488;5.462;2024-01-30T10:55:37;12.30;99.90
75430;DHT22;64127;51.488;5.462;2024-01-30T10:58:11;12.30;99.90
75430;DHT22;64127;51.488;5.462;2024-01-30T11:00:44;12.30;99.90
75430;DHT22;64127;51.488;5.462;2024-01-30T11:03:17;12.40;99.90
75430;DHT22;64127;51.488;5.462;2024-01-30T11:05:51;12.40;99.90
75430;DHT22;64127;51.488;5.462;2024-01-30T11:08:24;12.50;99.90
75430;DHT22;64127;51.488;5.462;2024-01-30T11:11:00;12.50;99.90
75430;DHT22;64127;51.488;5.462;2024-01-30T11:13:32;12.50;99.90
75430;DHT22;64127;51.488;5.462;2024-01-30T11:16:05;12.50;99.90
75430;DHT22;64127;51.488;5.462;2024-01-30T11:18:37;12.50;99.90
75430;DHT22;64127;51.488;5.462;2024-01-30T11:21:13;12.50;99.90
75430;DHT22;64127;51.488;5.462;2024-01-30T11:23:45;12.50;99.90
75430;DHT22;64127;51.488;5.462;2024-01-30T11:26:18;12.50;99.90
75430;DHT22;64127;51.488;5.462;2024-01-30T11:29:03;12.60;99.90
75430;DHT22;64127;51.488;5.462;2024-01-30T11:31:36;12.50;99.90
75430;DHT22;64127;51.488;5.462;2024-01-30T11:34:10;12.50;99.90
75430;DHT22;64127;51.488;5.462;2024-01-30T11:36:43;12.50;99.90
75430;DHT22;64127;51.488;5.462;2024-01-30T11:39:20;12.50;99.90
75430;DHT22;64127;51.488;5.462;2024-01-30T11:41:54;12.50;99.90
75430;DHT22;64127;51.488;5.462;2024-01-30T11:44:27;12.50;99.90
75430;DHT22;64127;51.488;5.462;2024-01-30T11:47:00;12.50;99.90
75430;DHT22;64127;51.488;5.462;2024-01-30T11:49:32;12.50;99.90
75430;DHT22;64127;51.488;5.462;2024-01-30T11:52:04;12.50;99.90
75430;DHT22;64127;51.488;5.462;2024-01-30T11:54:40;12.50;99.90
75430;DHT22;64127;51.488;5.462;2024-01-30T11:57:12;12.40;99.90
75430;DHT22;64127;51.488;5.462;2024-01-30T11:59:44;12.40;99.90
75430;DHT22;64127;51.488;5.462;2024-01-30T12:02:16;12.40;99.90
75430;DHT22;64127;51.488;5.462;2024-01-30T12:04:51;12.40;99.90
75430;DHT22;64127;51.488;5.462;2024-01-30T12:07:23;12.40;99.90
75430;DHT22;64127;51.488;5.462;2024-01-30T12:09:55;12.40;99.90
75430;DHT22;64127;51.488;5.462;2024-01-30T12:12:28;12.40;99.90
75430;DHT22;64127;51.488;5.462;2024-01-30T12:15:01;12.40;99.90
75430;DHT22;64127;51.488;5.462;2024-01-30T12:17:34;12.30;99.90
75430;DHT22;64127;51.488;5.462;2024-01-30T12:20:08;12.30;99.90
75430;DHT22;64127;51.488;5.462;2024-01-30T12:22:43;12.40;99.90
75430;DHT22;64127;51.488;5.462;2024-01-30T12:25:18;12.40;99.90
75430;DHT22;64127;51.488;5.462;2024-01-30T12:27:52;12.40;99.90
75430;DHT22;64127;51.488;5.462;2024-01-30T12:30:26;12.40;99.90
75430;DHT22;64127;51.488;5.462;2024-01-30T12:33:00;12.50;99.90
75430;DHT22;64127;51.488;5.462;2024-01-30T12:35:34;12.70;99.90
75430;DHT22;64127;51.488;5.462;2024-01-30T12:38:08;13.30;99.90
75430;DHT22;64127;51.488;5.462;2024-01-30T12:40:40;13.80;99.90
75430;DHT22;64127;51.488;5.462;2024-01-30T12:43:16;14.10;99.90
75430;DHT22;64127;51.488;5.462;2024-01-30T12:46:03;13.90;99.90
75430;DHT22;64127;51.488;5.462;2024-01-30T12:48:35;14.00;99.90
75430;DHT22;64127;51.488;5.462;2024-01-30T12:51:07;13.80;99.90
75430;DHT22;64127;51.488;5.462;2024-01-30T12:53:41;13.80;99.90
75430;DHT22;64127;51.488;5.462;2024-01-30T12:56:13;13.80;99.90
75430;DHT22;64127;51.488;5.462;2024-01-30T12:58:46;14.10;99.90
75430;DHT22;64127;51.488;5.462;2024-01-30T13:01:22;14.50;99.90
75430;DHT22;64127;51.488;5.462;2024-01-30T13:03:55;14.60;99.90
75430;DHT22;64127;51.488;5.462;2024-01-30T13:06:29;14.40;99.90
75430;DHT22;64127;51.488;5.462;2024-01-30T13:09:01;14.10;99.90
75430;DHT22;64127;51.488;5.462;2024-01-30T13:11:33;14.10;99.90
75430;DHT22;64127;51.488;5.462;2024-01-30T13:14:05;14.10;99.90
75430;DHT22;64127;51.488;5.462;2024-01-30T13:16:38;13.90;99.90
75430;DHT22;64127;51.488;5.462;2024-01-30T13:19:10;13.60;99.90
75430;DHT22;64127;51.488;5.462;2024-01-30T13:21:42;13.40;99.90
75430;DHT22;64127;51.488;5.462;2024-01-30T13:24:14;13.20;99.90
75430;DHT22;64127;51.488;5.462;2024-01-30T13:26:47;13.10;99.90
75430;DHT22;64127;51.488;5.462;2024-01-30T13:29:20;12.90;99.90
75430;DHT22;64127;51.488;5.462;2024-01-30T13:31:52;12.80;99.90
75430;DHT22;64127;51.488;5.462;2024-01-30T13:34:24;12.70;99.90
75430;DHT22;64127;51.488;5.462;2024-01-30T13:36:56;12.60;99.90
75430;DHT22;64127;51.488;5.462;2024-01-30T13:39:29;12.80;99.90
75430;DHT22;64127;51.488;5.462;2024-01-30T13:42:07;13.10;99.90
75430;DHT22;64127;51.488;5.462;2024-01-30T13:44:39;13.20;99.90
75430;DHT22;64127;51.488;5.462;2024-01-30T13:47:11;13.20;99.90
75430;DHT22;64127;51.488;5.462;2024-01-30T13:49:43;13.00;99.90
75430;DHT22;64127;51.488;5.462;2024-01-30T13:52:15;12.90;99.90
75430;DHT22;64127;51.488;5.462;2024-01-30T13:54:47;12.70;99.90
75430;DHT22;64127;51.488;5.462;2024-01-30T13:57:19;12.60;99.90
75430;DHT22;64127;51.488;5.462;2024-01-30T13:59:51;12.50;99.90
75430;DHT22;64127;51.488;5.462;2024-01-30T14:02:23;12.40;99.90
75430;DHT22;64127;51.488;5.462;2024-01-30T14:04:55;12.30;99.90
75430;DHT22;64127;51.488;5.462;2024-01-30T14:07:28;12.40;99.90
75430;DHT22;64127;51.488;5.462;2024-01-30T14:10:00;12.30;99.90
75430;DHT22;64127;51.488;5.462;2024-01-30T14:12:33;12.20;99.90
75430;DHT22;64127;51.488;5.462;2024-01-30T14:15:07;12.20;99.90
75430;DHT22;64127;51.488;5.462;2024-01-30T14:17:57;12.10;99.90
75430;DHT22;64127;51.488;5.462;2024-01-30T14:20:31;12.10;99.90
75430;DHT22;64127;51.488;5.462;2024-01-30T14:23:03;12.00;99.90
75430;DHT22;64127;51.488;5.462;2024-01-30T14:25:35;12.10;99.90
75430;DHT22;64127;51.488;5.462;2024-01-30T14:28:07;12.00;99.90
75430;DHT22;64127;51.488;5.462;2024-01-30T14:30:39;12.10;99.90
75430;DHT22;64127;51.488;5.462;2024-01-30T14:33:11;12.00;99.90
75430;DHT22;64127;51.488;5.462;2024-01-30T14:35:44;12.00;99.90
75430;DHT22;64127;51.488;5.462;2024-01-30T14:38:15;11.90;99.90
75430;DHT22;64127;51.488;5.462;2024-01-30T14:40:48;11.90;99.90
75430;DHT22;64127;51.488;5.462;2024-01-30T14:43:19;11.80;99.90
75430;DHT22;64127;51.488;5.462;2024-01-30T14:45:51;11.80;99.90
75430;DHT22;64127;51.488;5.462;2024-01-30T14:48:24;11.70;99.90
75430;DHT22;64127;51.488;5.462;2024-01-30T14:50:56;11.60;99.90
75430;DHT22;64127;51.488;5.462;2024-01-30T14:53:28;11.60;99.90
75430;DHT22;64127;51.488;5.462;2024-01-30T14:56:00;11.50;99.90
75430;DHT22;64127;51.488;5.462;2024-01-30T14:58:34;11.50;99.90
75430;DHT22;64127;51.488;5.462;2024-01-30T15:01:07;11.40;99.90
75430;DHT22;64127;51.488;5.462;2024-01-30T15:03:39;11.40;99.90
75430;DHT22;64127;51.488;5.462;2024-01-30T15:06:14;11.30;99.90
75430;DHT22;64127;51.488;5.462;2024-01-30T15:08:46;11.20;99.90
75430;DHT22;64127;51.488;5.462;2024-01-30T15:11:19;11.20;99.90
75430;DHT22;64127;51.488;5.462;2024-01-30T15:13:51;11.10;99.90
75430;DHT22;64127;51.488;5.462;2024-01-30T15:16:23;11.10;99.90
75430;DHT22;64127;51.488;5.462;2024-01-30T15:18:55;11.00;99.90
75430;DHT22;64127;51.488;5.462;2024-01-30T15:21:28;10.90;99.90
75430;DHT22;64127;51.488;5.462;2024-01-30T15:24:02;10.80;99.90
75430;DHT22;64127;51.488;5.462;2024-01-30T15:26:34;10.70;99.90
75430;DHT22;64127;51.488;5.462;2024-01-30T15:29:06;10.70;99.90
75430;DHT22;64127;51.488;5.462;2024-01-30T15:31:38;10.60;99.90
75430;DHT22;64127;51.488;5.462;2024-01-30T15:34:10;10.60;99.90
75430;DHT22;64127;51.488;5.462;2024-01-30T15:36:43;10.60;99.90
75430;DHT22;64127;51.488;5.462;2024-01-30T15:39:15;10.60;99.90
75430;DHT22;64127;51.488;5.462;2024-01-30T15:41:48;10.50;99.90
75430;DHT22;64127;51.488;5.462;2024-01-30T15:44:20;10.50;99.90
75430;DHT22;64127;51.488;5.462;2024-01-30T15:46:52;10.60;99.90
75430;DHT22;64127;51.488;5.462;2024-01-30T15:49:25;10.50;99.90
75430;DHT22;64127;51.488;5.462;2024-01-30T15:51:58;10.50;99.90
75430;DHT22;64127;51.488;5.462;2024-01-30T15:54:30;10.50;99.90
75430;DHT22;64127;51.488;5.462;2024-01-30T15:57:02;10.50;99.90
75430;DHT22;64127;51.488;5.462;2024-01-30T15:59:36;10.50;99.90
75430;DHT22;64127;51.488;5.462;2024-01-30T16:02:09;10.60;99.90
75430;DHT22;64127;51.488;5.462;2024-01-30T16:04:41;10.50;99.90